createdAt,value
2017-02-06T02:57:18.053Z,1.10
2017-02-06T03:03:25.828Z,1.07
2017-02-06T03:06:31.055Z,1.06
2017-02-06T03:09:34.413Z,1.06
2017-02-06T03:12:37.838Z,1.05
2017-02-06T03:24:51.650Z,1.05
2017-02-06T03:34:03.653Z,1.05
2017-02-06T03:37:10.263Z,1.04
2017-02-06T03:43:15.677Z,1.01
2017-02-06T03:46:20.637Z,1.01
2017-02-06T03:52:32.415Z,1.00
2017-02-06T03:55:34.764Z,0.99
2017-02-06T03:58:32.307Z,0.97
2017-02-06T04:01:41.825Z,0.97
2017-02-06T04:04:47.929Z,0.95
2017-02-06T04:26:14.548Z,0.94
2017-02-06T04:29:17.368Z,0.93
2017-02-06T04:35:22.084Z,0.91
2017-02-06T04:38:24.037Z,0.91
2017-02-06T04:41:29.186Z,0.93
2017-02-06T04:44:34.198Z,0.93
2017-02-06T04:47:37.082Z,0.93
2017-02-06T04:50:41.784Z,0.92
2017-02-06T04:53:48.635Z,0.91
2017-02-06T04:56:50.738Z,0.89
2017-02-06T04:59:55.121Z,0.90
2017-02-06T05:03:00.158Z,0.89
2017-02-06T05:09:06.804Z,0.85
2017-02-06T05:12:08.148Z,0.84
2017-02-06T05:15:11.946Z,0.83
2017-02-06T05:36:34.777Z,0.78
2017-02-06T05:42:50.427Z,0.75
2017-02-06T06:37:48.637Z,0.66
2017-02-06T06:40:53.538Z,0.69
2017-02-06T06:43:58.481Z,0.73
2017-02-06T06:47:03.433Z,0.75
2017-02-06T06:53:13.681Z,0.76
2017-02-06T06:56:18.415Z,0.76
2017-02-06T07:02:28.567Z,0.78
2017-02-06T07:05:33.444Z,0.79
2017-02-06T07:08:38.479Z,0.81
2017-02-06T07:45:19.683Z,0.81
2017-02-06T08:03:33.718Z,0.86
2017-02-06T08:06:44.299Z,0.88
2017-02-06T08:12:47.239Z,0.92
2017-02-06T09:07:54.315Z,1.32
2017-02-06T09:11:00.494Z,1.35
2017-02-06T09:13:54.492Z,1.36
2017-02-06T09:17:08.080Z,1.38
2017-02-06T09:23:18.542Z,1.34
2017-02-06T09:26:23.808Z,1.33
2017-02-06T09:29:19.950Z,1.31
2017-02-06T09:32:35.677Z,1.30
2017-02-06T09:35:37.921Z,1.31
2017-02-06T09:38:34.687Z,1.33
2017-02-06T13:16:06.073Z,3.98
2017-02-06T13:18:59.567Z,3.96
2017-02-06T13:22:05.152Z,3.93
2017-02-06T13:25:19.961Z,3.92
2017-02-06T13:28:22.235Z,3.89
2017-02-06T13:37:35.331Z,3.88
2017-02-06T13:40:40.228Z,3.93
2017-02-06T13:43:46.118Z,3.92
2017-02-06T13:46:49.883Z,3.88
2017-02-06T13:52:55.432Z,3.88
2017-02-06T13:56:05.851Z,3.87
2017-02-06T13:59:05.970Z,3.90
2017-02-06T14:08:26.428Z,3.84
2017-02-06T14:11:31.352Z,3.82
2017-02-06T14:17:34.892Z,3.71
2017-02-06T14:20:45.564Z,3.67
2017-02-06T14:23:50.264Z,3.63
2017-02-06T14:26:55.374Z,3.66
2017-02-06T14:30:00.545Z,3.64
2017-02-06T14:36:05.743Z,3.67
2017-02-06T14:39:08.529Z,3.67
2017-02-06T14:42:24.359Z,3.65
2017-02-06T14:45:27.014Z,3.62
2017-02-06T14:48:31.928Z,3.61
2017-02-06T14:51:37.060Z,3.60
2017-02-06T14:54:42.119Z,3.62
2017-02-06T14:57:47.145Z,3.63
2017-02-06T15:00:46.806Z,3.63
2017-02-06T15:03:57.533Z,3.61
2017-02-06T15:06:57.627Z,3.58
2017-02-06T15:10:11.757Z,3.57
2017-02-06T15:16:14.288Z,3.53
2017-02-06T15:19:19.187Z,3.45
2017-02-06T15:25:30.157Z,3.41
2017-02-06T15:28:32.687Z,3.35
2017-02-06T15:31:37.162Z,3.35
2017-02-06T15:34:42.427Z,3.33
2017-02-06T15:43:57.619Z,3.29
2017-02-06T15:47:02.387Z,3.26
2017-02-06T15:50:07.449Z,3.25
2017-02-06T15:53:07.344Z,3.20
2017-02-06T15:56:17.416Z,3.19
2017-02-06T15:59:22.521Z,3.12
2017-02-06T16:02:19.839Z,3.05
2017-02-06T16:05:34.526Z,2.99
2017-02-06T16:08:34.020Z,2.95
2017-02-06T16:11:40.825Z,2.89
2017-02-06T16:14:42.885Z,2.85
2017-02-06T16:17:48.048Z,2.82
2017-02-06T16:20:52.980Z,2.83
2017-02-06T16:23:58.003Z,2.80
2017-02-06T16:27:02.688Z,2.76
2017-02-06T16:30:00.189Z,2.74
2017-02-06T16:33:14.646Z,2.72
2017-02-06T16:36:15.794Z,2.69
2017-02-06T16:39:16.152Z,2.67
2017-02-06T16:42:26.297Z,2.68
2017-02-06T16:45:31.304Z,2.63
2017-02-06T16:48:35.541Z,2.62
2017-02-06T16:51:40.070Z,2.63
2017-02-06T16:54:44.325Z,2.62
2017-02-06T16:57:49.383Z,2.60
2017-02-06T17:03:58.278Z,2.61
2017-02-06T17:07:02.137Z,2.59
2017-02-06T17:10:08.093Z,2.56
2017-02-06T17:22:24.240Z,2.55
2017-02-06T17:31:39.022Z,2.50
2017-02-06T17:34:43.750Z,2.45
2017-02-06T17:37:48.672Z,2.44
2017-02-06T17:40:53.756Z,2.42
2017-02-06T17:43:58.655Z,2.41
2017-02-06T17:47:03.791Z,2.43
2017-02-06T17:50:08.919Z,2.43
2017-02-06T17:53:06.831Z,2.40
2017-02-06T17:59:24.450Z,2.38
2017-02-06T18:05:34.939Z,2.34
2017-02-06T18:08:40.144Z,2.32
2017-02-06T18:11:45.026Z,2.26
2017-02-06T18:14:42.027Z,2.26
2017-02-06T18:17:55.055Z,2.25
2017-02-06T18:20:54.459Z,2.25
2017-02-06T18:24:04.541Z,2.24
2017-02-06T18:27:01.692Z,2.23
2017-02-06T18:30:15.028Z,2.20
2017-02-06T18:33:20.032Z,2.17
2017-02-06T18:36:24.781Z,2.15
2017-02-06T18:42:34.825Z,2.09
2017-02-06T18:45:38.762Z,2.09
2017-02-06T18:48:45.381Z,2.08
2017-02-06T18:51:42.089Z,2.08
2017-02-06T18:54:55.599Z,2.09
2017-02-06T18:58:02.776Z,2.09
2017-02-06T19:01:05.013Z,2.08
2017-02-06T19:04:09.842Z,2.06
2017-02-06T19:07:14.922Z,2.06
2017-02-06T19:10:19.525Z,2.07
2017-02-06T19:13:23.377Z,2.05
2017-02-06T19:16:29.390Z,2.00
2017-02-06T19:19:34.234Z,1.96
2017-02-06T19:22:39.186Z,1.92
2017-02-06T19:25:44.282Z,1.91
2017-02-06T19:31:53.673Z,1.89
2017-02-06T19:34:59.662Z,1.89
2017-02-06T19:41:08.552Z,1.88
2017-02-06T19:44:13.386Z,1.89
2017-02-06T19:47:18.419Z,1.90
2017-02-06T19:50:23.164Z,1.90
2017-02-06T19:53:27.713Z,1.90
2017-02-06T19:56:32.528Z,1.92
2017-02-06T19:59:36.731Z,1.95
2017-02-06T20:02:41.664Z,1.95
2017-02-06T20:08:52.045Z,1.93
2017-02-06T20:11:56.841Z,1.93
2017-02-06T20:18:08.164Z,1.92
2017-02-06T20:21:11.391Z,1.92
2017-02-06T20:30:24.559Z,1.93
2017-02-06T20:33:30.879Z,1.96
2017-02-06T20:39:36.442Z,1.94
2017-02-06T20:42:47.091Z,1.93
2017-02-06T20:45:51.574Z,1.94
2017-02-06T20:48:55.973Z,1.93
2017-02-06T20:52:01.389Z,1.93
2017-02-06T20:58:02.026Z,1.94
2017-02-06T21:04:19.254Z,1.93
2017-02-06T21:07:22.600Z,1.92
2017-02-06T21:10:14.015Z,1.90
2017-02-06T21:13:16.250Z,1.90
2017-02-06T21:19:26.617Z,1.92
2017-02-06T21:22:31.823Z,1.90
2017-02-06T21:25:34.135Z,1.88
2017-02-06T21:28:40.999Z,1.87
2017-02-06T21:31:35.315Z,1.88
2017-02-06T21:34:48.834Z,1.85
2017-02-06T21:37:49.157Z,1.83
2017-02-06T21:40:53.469Z,1.85
2017-02-06T21:44:03.536Z,1.83
2017-02-06T21:47:08.209Z,1.81
2017-02-06T21:50:13.102Z,1.80
2017-02-06T21:53:17.727Z,1.80
2017-02-06T21:56:22.603Z,1.79
2017-02-06T21:59:27.782Z,1.80
2017-02-06T22:02:32.710Z,1.80
2017-02-06T22:05:37.261Z,1.80
2017-02-06T22:11:39.458Z,1.79
2017-02-06T22:14:55.237Z,1.78
2017-02-06T22:17:52.694Z,1.76
2017-02-06T22:21:03.278Z,1.73
2017-02-06T22:24:07.573Z,1.73
2017-02-06T22:27:07.681Z,1.73
2017-02-06T22:33:22.415Z,1.71
2017-02-06T22:36:22.792Z,1.69
2017-02-06T22:39:32.984Z,1.67
2017-02-06T22:42:38.857Z,1.66
2017-02-06T22:45:34.702Z,1.64
2017-02-06T22:48:48.246Z,1.62
2017-02-06T22:51:47.521Z,1.61
2017-02-06T22:54:58.272Z,1.60
2017-02-06T22:58:03.147Z,1.58
2017-02-06T23:01:07.532Z,1.59
2017-02-06T23:10:13.246Z,1.57
2017-02-06T23:13:28.928Z,1.55
2017-02-06T23:16:31.380Z,1.54
2017-02-06T23:19:36.437Z,1.53
2017-02-06T23:22:40.926Z,1.54
2017-02-06T23:25:40.775Z,1.53
2017-02-06T23:28:51.813Z,1.52
2017-02-06T23:31:46.423Z,1.52
2017-02-06T23:34:54.867Z,1.53
2017-02-06T23:38:05.107Z,1.54
2017-02-06T23:41:10.126Z,1.53
2017-02-06T23:47:13.432Z,1.51
2017-02-06T23:50:27.847Z,1.51
2017-02-06T23:53:30.077Z,1.51
2017-02-06T23:56:32.716Z,1.48
2017-02-06T23:59:37.102Z,1.45
